KMXO

Details ICAO KMXO
Name MONTICELLO RGNL
Region United States
Timezone America/Chicago (UTC-6.0)
Plans Departing 2
Arriving 2
Stats Elevation 833 ft / 254 m (AMSL)
Location 42.220018° -91.162910°
Runways 2
Magnetic Variation 1.178° W
Sunrise 2017-12-18 13:29:54 UTC / 2017-12-18 07:29:54 Local
Sunset 2017-12-18 22:35:34 UTC / 2017-12-18 16:35:34 Local
Advertisement - Login to hide

Runways

ID Width Length Bearing (true) Bearing (mag) Surface Threshold Offset Overrun Length
09 90 ft / 27 m 2,285 ft / 696 m 90.00° 91.18° Grass 0 ft / 0 m 0 ft / 0 m
15 75 ft / 23 m 4,402 ft / 1,342 m 153.90° 155.08° Concrete 0 ft / 0 m 0 ft / 0 m
27 90 ft / 27 m 2,285 ft / 696 m 270.00° 271.18° Grass 0 ft / 0 m 0 ft / 0 m
33 75 ft / 23 m 4,402 ft / 1,342 m 333.91° 335.09° Concrete 0 ft / 0 m 0 ft / 0 m

Map

Weather


0- 5 10 15 20 25 30 35+ Temperature / ° C

Clouds and Precipitation
Forecast for 2017-12-19 00:00 UTC. Updated an hour ago

Ground ~20,000 ft ~40,000 ft Winds

METAR

KMXO 182235Z AUTO 24006KT 10SM CLR 06/00 A2982 RMK AO2

TAF

Not found

Frequencies

Recorded 119.27 MHz AWOS 3
Approach 134.05 MHz CEDAR RAPIDS APP/DEP
Unicom 122.80 MHz CTAF/UNICOM
Warning: Do not use this data for real-world aviation or navigation. No guarantee of current accuracy is given.